createdAt,value
2022-12-16T00:01:32.367Z,11.50
2022-12-16T00:04:01.319Z,12.05
2022-12-16T00:06:33.036Z,13.57
2022-12-16T00:09:03.120Z,14.57
2022-12-16T00:11:32.830Z,19.08
2022-12-16T00:14:01.760Z,15.57
2022-12-16T00:16:32.343Z,14.27
2022-12-16T00:19:01.647Z,17.33
2022-12-16T00:21:34.336Z,13.60
2022-12-16T00:24:04.720Z,11.90
2022-12-16T00:26:34.001Z,12.00
2022-12-16T00:29:05.744Z,13.05
2022-12-16T00:31:37.191Z,16.52
2022-12-16T00:34:06.520Z,18.15
2022-12-16T00:36:35.660Z,19.92
2022-12-16T00:39:07.097Z,12.75
2022-12-16T00:41:38.516Z,13.45
2022-12-16T00:44:11.298Z,23.42
2022-12-16T00:46:44.494Z,11.82
2022-12-16T00:49:17.291Z,15.75
2022-12-16T00:51:47.840Z,18.70
2022-12-16T00:54:20.430Z,17.90
2022-12-16T00:56:51.765Z,17.88
2022-12-16T00:59:25.114Z,16.50
2022-12-16T01:01:56.429Z,14.85
2022-12-16T01:04:26.944Z,14.90
2022-12-16T01:06:56.834Z,11.60
2022-12-16T01:09:27.543Z,16.17
2022-12-16T01:11:56.654Z,16.15
2022-12-16T01:14:26.225Z,16.67
2022-12-16T01:16:57.521Z,14.75
2022-12-16T01:19:26.368Z,11.65
2022-12-16T01:21:54.706Z,13.50
2022-12-16T01:24:23.093Z,17.48
2022-12-16T01:26:52.901Z,17.80
2022-12-16T01:29:22.550Z,17.35
2022-12-16T01:31:55.241Z,15.93
2022-12-16T01:37:27.172Z,15.73
2022-12-16T01:39:56.772Z,13.82
2022-12-16T01:42:28.988Z,15.65
2022-12-16T01:44:57.176Z,12.98
2022-12-16T01:47:29.701Z,15.45
2022-12-16T01:50:04.284Z,18.52
2022-12-16T01:52:38.138Z,16.80
2022-12-16T01:55:10.746Z,18.73
2022-12-16T01:57:43.151Z,18.60
2022-12-16T02:00:13.217Z,16.33
2022-12-16T02:02:44.079Z,14.07
2022-12-16T02:05:26.217Z,15.63
2022-12-16T02:08:01.254Z,19.52
2022-12-16T02:10:40.761Z,18.05
2022-12-16T02:13:21.166Z,16.55
2022-12-16T02:15:59.742Z,15.93
2022-12-16T02:18:42.326Z,16.83
2022-12-16T02:21:33.735Z,13.98
2022-12-16T02:24:26.325Z,15.68
2022-12-16T02:27:20.778Z,16.92
2022-12-16T02:30:08.075Z,13.07
2022-12-16T02:32:51.098Z,15.45
2022-12-16T02:35:29.397Z,16.92
2022-12-16T02:38:05.214Z,17.30
2022-12-16T02:40:41.580Z,13.32
2022-12-16T02:43:17.642Z,14.60
2022-12-16T02:45:46.487Z,12.38
2022-12-16T02:48:18.058Z,15.30
2022-12-16T02:50:51.140Z,14.10
2022-12-16T02:53:21.366Z,14.15
2022-12-16T02:56:01.848Z,14.90
2022-12-16T02:58:37.990Z,16.75
2022-12-16T03:01:13.143Z,15.38
2022-12-16T03:03:49.315Z,17.25
2022-12-16T03:06:20.508Z,17.13
2022-12-16T03:08:53.724Z,13.20
2022-12-16T03:11:22.449Z,16.60
2022-12-16T03:13:54.808Z,13.77
2022-12-16T03:16:28.014Z,18.30
2022-12-16T03:19:04.020Z,22.20
2022-12-16T03:21:38.478Z,16.30
2022-12-16T03:24:11.136Z,18.00
2022-12-16T03:26:45.040Z,12.00
2022-12-16T03:29:16.291Z,18.08
2022-12-16T03:31:49.152Z,15.30
2022-12-16T03:34:29.146Z,21.00
2022-12-16T03:37:03.363Z,19.65
2022-12-16T03:39:34.389Z,17.30
2022-12-16T03:42:03.954Z,14.10
2022-12-16T03:44:32.603Z,19.13
2022-12-16T03:47:01.055Z,17.85
2022-12-16T03:49:31.423Z,17.00
2022-12-16T03:52:00.463Z,19.15
2022-12-16T03:54:32.157Z,13.68
2022-12-16T03:57:07.335Z,16.52
2022-12-16T03:59:39.562Z,13.20
2022-12-16T04:02:07.980Z,15.48
2022-12-16T04:04:38.004Z,16.73
2022-12-16T04:07:21.733Z,14.50
2022-12-16T04:09:51.020Z,17.27
2022-12-16T04:12:37.517Z,15.73
2022-12-16T04:15:24.209Z,15.93
2022-12-16T04:18:10.323Z,14.43
2022-12-16T04:21:02.343Z,20.30
2022-12-16T04:23:47.727Z,25.23
2022-12-16T04:26:16.706Z,15.63
2022-12-16T04:28:45.094Z,15.00
2022-12-16T04:31:13.917Z,17.25
2022-12-16T04:34:02.123Z,16.90
2022-12-16T04:36:50.034Z,16.77
2022-12-16T04:39:41.488Z,22.13
2022-12-16T04:42:28.698Z,19.23
2022-12-16T04:48:13.288Z,16.40
2022-12-16T04:50:59.291Z,18.55
2022-12-16T04:53:54.892Z,16.33
2022-12-16T04:56:40.788Z,19.38
2022-12-16T04:59:26.606Z,17.23
2022-12-16T05:02:12.187Z,17.23
2022-12-16T05:04:59.021Z,25.02
2022-12-16T05:07:45.778Z,23.38
2022-12-16T05:10:33.603Z,19.88
2022-12-16T05:13:20.138Z,17.25
2022-12-16T05:16:05.978Z,18.63
2022-12-16T05:18:58.719Z,19.48
2022-12-16T05:21:47.479Z,20.98
2022-12-16T05:24:36.025Z,15.70
2022-12-16T05:27:24.256Z,17.98
2022-12-16T05:30:27.935Z,15.48
2022-12-16T05:33:18.556Z,17.40
2022-12-16T05:36:06.755Z,19.05
2022-12-16T05:38:53.872Z,23.20
2022-12-16T05:41:40.516Z,17.48
2022-12-16T05:44:29.364Z,21.83
2022-12-16T05:47:14.928Z,19.65
2022-12-16T05:50:00.911Z,17.13
2022-12-16T05:52:47.336Z,24.20
2022-12-16T05:55:34.248Z,21.42
2022-12-16T05:58:20.765Z,15.65
2022-12-16T06:01:08.744Z,18.85
2022-12-16T06:03:54.708Z,19.95
2022-12-16T06:06:41.027Z,19.55
2022-12-16T06:09:27.086Z,20.77
2022-12-16T06:12:12.642Z,18.02
2022-12-16T06:14:58.533Z,18.02
2022-12-16T06:17:46.361Z,17.45
2022-12-16T06:20:32.006Z,16.02
2022-12-16T06:23:21.153Z,19.80
2022-12-16T06:26:09.781Z,20.25
2022-12-16T06:28:55.039Z,17.27
2022-12-16T06:31:40.802Z,19.77
2022-12-16T06:34:27.996Z,24.30
2022-12-16T06:37:13.804Z,19.55
2022-12-16T06:39:59.216Z,23.30
2022-12-16T06:42:44.998Z,18.95
2022-12-16T06:45:35.008Z,17.45
2022-12-16T06:48:20.779Z,25.92
2022-12-16T06:51:09.222Z,18.10
2022-12-16T06:53:54.708Z,20.50
2022-12-16T06:56:40.281Z,16.92
2022-12-16T06:59:25.497Z,18.83
2022-12-16T07:02:11.238Z,13.88
2022-12-16T07:04:58.465Z,20.52
2022-12-16T07:07:45.606Z,18.55
2022-12-16T07:10:31.603Z,17.65
2022-12-16T07:13:19.034Z,22.55
2022-12-16T07:16:05.479Z,23.67
2022-12-16T07:18:51.363Z,15.20
2022-12-16T07:21:37.170Z,17.67
2022-12-16T07:24:25.291Z,17.95
2022-12-16T07:27:11.030Z,19.73
2022-12-16T07:30:08.062Z,21.17
2022-12-16T07:32:53.632Z,14.40
2022-12-16T07:35:40.212Z,18.40
2022-12-16T07:38:25.722Z,19.92
2022-12-16T07:41:13.959Z,20.83
2022-12-16T07:44:00.400Z,18.08
2022-12-16T07:46:47.659Z,23.23
2022-12-16T07:49:33.283Z,17.58
2022-12-16T07:52:22.240Z,24.02
2022-12-16T07:55:08.266Z,18.58
2022-12-16T07:58:22.161Z,15.40
2022-12-16T08:10:56.448Z,21.17
2022-12-16T08:13:49.104Z,19.63
2022-12-16T08:16:34.434Z,23.60
2022-12-16T08:19:19.993Z,18.88
2022-12-16T08:22:05.405Z,19.63
2022-12-16T08:24:53.541Z,14.60
2022-12-16T08:27:38.708Z,17.77
2022-12-16T08:30:27.305Z,15.80
2022-12-16T08:33:18.854Z,18.63
2022-12-16T08:36:05.901Z,21.33
2022-12-16T08:38:51.484Z,22.55
2022-12-16T08:41:37.089Z,22.15
2022-12-16T08:44:22.766Z,17.27
2022-12-16T08:47:10.095Z,18.15
2022-12-16T08:49:57.918Z,15.02
2022-12-16T08:52:47.469Z,17.45
2022-12-16T08:55:33.382Z,24.20
2022-12-16T08:58:24.285Z,16.45
2022-12-16T09:01:10.049Z,14.73
2022-12-16T09:04:28.333Z,18.80
2022-12-16T09:07:14.810Z,16.98
2022-12-16T09:10:00.564Z,17.58
2022-12-16T09:12:46.077Z,14.10
2022-12-16T09:15:31.822Z,17.65
2022-12-16T09:18:17.383Z,13.02
2022-12-16T09:21:04.593Z,12.85
2022-12-16T09:23:55.696Z,13.63
2022-12-16T09:26:44.493Z,18.35
2022-12-16T09:29:30.376Z,12.65
2022-12-16T09:32:15.701Z,16.85
2022-12-16T09:35:02.024Z,21.60
2022-12-16T09:37:49.294Z,18.52
2022-12-16T09:40:36.436Z,21.13
2022-12-16T09:43:32.293Z,21.90
2022-12-16T09:46:32.608Z,21.70
2022-12-16T09:49:30.515Z,15.48
2022-12-16T09:56:02.101Z,14.60
2022-12-16T09:58:52.036Z,22.00
2022-12-16T10:01:40.266Z,18.55
2022-12-16T10:04:43.767Z,15.85
2022-12-16T10:07:35.800Z,21.63
2022-12-16T10:10:33.645Z,22.88
2022-12-16T10:13:38.703Z,12.57
2022-12-16T10:16:35.195Z,21.23
2022-12-16T10:19:39.875Z,18.15
2022-12-16T10:22:35.607Z,18.27
2022-12-16T10:25:34.327Z,20.67
2022-12-16T10:28:34.574Z,19.15
2022-12-16T10:31:23.085Z,21.38
2022-12-16T10:34:11.271Z,21.52
2022-12-16T10:36:57.742Z,29.67
2022-12-16T10:39:48.136Z,24.75
2022-12-16T10:42:40.965Z,29.33
2022-12-16T10:45:36.039Z,23.83
2022-12-16T10:48:36.261Z,18.20
2022-12-16T10:51:32.771Z,25.92
2022-12-16T10:54:32.305Z,19.35
2022-12-16T10:57:29.362Z,17.42
2022-12-16T11:00:30.415Z,20.52
2022-12-16T11:03:35.153Z,19.52
2022-12-16T11:06:21.551Z,19.85
2022-12-16T11:09:07.122Z,22.25
2022-12-16T11:11:52.610Z,21.33
2022-12-16T11:14:59.567Z,20.65
2022-12-16T11:17:50.790Z,18.55
2022-12-16T11:20:42.505Z,24.23
2022-12-16T11:23:39.367Z,17.10
2022-12-16T11:26:33.114Z,19.42
2022-12-16T11:29:29.543Z,15.40
2022-12-16T11:32:22.921Z,16.92
2022-12-16T11:35:13.880Z,18.10
2022-12-16T11:38:02.176Z,16.02
2022-12-16T11:41:02.087Z,16.67
2022-12-16T11:43:49.643Z,17.40
2022-12-16T11:46:43.650Z,17.00
2022-12-16T11:49:43.650Z,14.40
2022-12-16T11:52:37.330Z,13.18
2022-12-16T11:56:04.119Z,16.55
2022-12-16T11:58:55.265Z,30.08
2022-12-16T12:01:46.903Z,16.15
2022-12-16T12:04:33.221Z,16.45
2022-12-16T12:07:46.824Z,19.70
2022-12-16T12:10:49.381Z,20.98
2022-12-16T12:13:48.942Z,17.38
2022-12-16T12:16:44.228Z,19.23
2022-12-16T12:19:44.009Z,16.65
2022-12-16T12:22:34.685Z,17.08
2022-12-16T12:25:28.391Z,18.98
2022-12-16T12:28:22.810Z,18.00
2022-12-16T12:31:17.231Z,17.05
2022-12-16T12:34:14.580Z,16.92
2022-12-16T12:37:10.635Z,19.52
2022-12-16T12:40:03.053Z,18.10
2022-12-16T12:42:58.376Z,25.20
2022-12-16T12:46:03.800Z,14.93
2022-12-16T12:49:01.407Z,18.20
2022-12-16T12:51:55.081Z,22.27
2022-12-16T12:54:51.600Z,20.20
2022-12-16T12:57:41.512Z,17.85
2022-12-16T13:00:36.613Z,18.13
2022-12-16T13:03:26.283Z,17.98
2022-12-16T13:06:13.073Z,18.58
2022-12-16T13:09:12.988Z,16.25
2022-12-16T13:12:20.335Z,18.35
2022-12-16T13:15:15.054Z,25.17
2022-12-16T13:18:39.429Z,20.27
2022-12-16T13:22:17.236Z,18.42
2022-12-16T13:25:07.865Z,15.25
2022-12-16T13:28:14.002Z,16.02
2022-12-16T13:31:20.224Z,15.63
2022-12-16T13:34:24.410Z,17.15
2022-12-16T13:37:15.630Z,13.73
2022-12-16T13:44:10.793Z,22.00
2022-12-16T13:47:02.263Z,19.15
2022-12-16T13:50:03.726Z,16.38
2022-12-16T13:53:03.657Z,20.75
2022-12-16T13:55:56.391Z,21.05
2022-12-16T13:58:51.372Z,14.23
2022-12-16T14:01:47.132Z,17.70
2022-12-16T14:04:44.285Z,21.25
2022-12-16T14:07:41.518Z,17.05
2022-12-16T14:10:46.634Z,17.10
2022-12-16T14:13:41.885Z,23.13
2022-12-16T14:16:38.389Z,19.65
2022-12-16T14:19:44.273Z,23.10
2022-12-16T14:22:45.729Z,16.45
2022-12-16T14:25:35.343Z,19.17
2022-12-16T14:28:27.137Z,17.02
2022-12-16T14:31:23.615Z,20.17
2022-12-16T14:34:12.440Z,20.50
2022-12-16T14:36:58.984Z,19.67
2022-12-16T14:39:48.671Z,20.23
2022-12-16T14:42:41.319Z,17.17
2022-12-16T14:45:40.803Z,16.80
2022-12-16T14:48:47.469Z,23.48
2022-12-16T14:51:41.485Z,18.88
2022-12-16T14:54:43.739Z,14.75
2022-12-16T14:57:33.586Z,20.73
2022-12-16T15:00:20.807Z,19.25
2022-12-16T15:03:09.866Z,21.85
2022-12-16T15:05:58.548Z,14.60
2022-12-16T15:08:50.707Z,20.55
2022-12-16T15:11:40.551Z,15.48
2022-12-16T15:14:32.096Z,23.48
2022-12-16T15:17:22.769Z,15.07
2022-12-16T15:20:14.095Z,16.98
2022-12-16T15:23:07.139Z,18.23
2022-12-16T15:26:02.105Z,16.80
2022-12-16T15:28:58.266Z,24.10
2022-12-16T15:34:50.164Z,18.08
2022-12-16T15:37:38.676Z,26.48
2022-12-16T15:40:39.299Z,19.50
2022-12-16T15:43:25.747Z,17.13
2022-12-16T15:46:11.111Z,18.92
2022-12-16T15:48:56.965Z,23.02
2022-12-16T15:51:48.730Z,21.65
2022-12-16T15:54:42.165Z,19.63
2022-12-16T16:00:44.414Z,23.85
2022-12-16T16:03:42.694Z,24.02
2022-12-16T16:06:35.290Z,28.98
2022-12-16T16:09:21.189Z,26.17
2022-12-16T16:12:06.448Z,22.85
2022-12-16T16:14:52.263Z,23.33
2022-12-16T16:17:41.542Z,18.55
2022-12-16T16:20:32.857Z,29.15
2022-12-16T16:23:18.923Z,21.95
2022-12-16T16:26:05.929Z,23.55
2022-12-16T16:28:52.025Z,25.23
2022-12-16T16:31:39.888Z,17.80
2022-12-16T16:34:27.137Z,21.15
2022-12-16T16:37:14.885Z,31.92
2022-12-16T16:40:01.317Z,24.75
2022-12-16T16:42:46.961Z,29.20
2022-12-16T16:45:32.778Z,22.63
2022-12-16T16:48:25.851Z,28.27
2022-12-16T16:51:14.710Z,27.48
2022-12-16T16:54:00.482Z,22.23
2022-12-16T16:56:49.969Z,27.23
2022-12-16T16:59:35.354Z,24.85
2022-12-16T17:02:20.796Z,32.72
2022-12-16T17:05:06.483Z,24.35
2022-12-16T17:07:56.547Z,22.92
2022-12-16T17:10:41.960Z,23.40
2022-12-16T17:13:28.446Z,23.23
2022-12-16T17:16:14.333Z,21.95
2022-12-16T17:18:59.863Z,25.85
2022-12-16T17:21:45.134Z,25.95
2022-12-16T17:24:32.113Z,26.77
2022-12-16T17:27:17.557Z,21.77
2022-12-16T17:30:03.094Z,27.02
2022-12-16T17:38:41.676Z,29.15
2022-12-16T17:41:32.249Z,23.13
2022-12-16T17:44:20.688Z,22.27
2022-12-16T17:50:42.681Z,30.50
2022-12-16T17:53:32.281Z,21.92
2022-12-16T17:56:21.936Z,32.03
2022-12-16T17:59:15.613Z,24.02
2022-12-16T18:02:08.658Z,24.67
2022-12-16T18:04:55.408Z,30.73
2022-12-16T18:07:50.805Z,27.85
2022-12-16T18:10:47.226Z,25.42
2022-12-16T18:37:46.886Z,24.23
2022-12-16T18:40:39.322Z,25.17
2022-12-16T18:46:35.379Z,22.83
2022-12-16T18:49:23.150Z,22.83
2022-12-16T18:52:08.962Z,19.15
2022-12-16T18:55:04.099Z,21.20
2022-12-16T19:01:22.371Z,22.08
2022-12-16T19:04:14.152Z,20.65
2022-12-16T19:07:05.361Z,22.73
2022-12-16T19:10:03.903Z,20.95
2022-12-16T19:12:57.521Z,25.77
2022-12-16T19:15:49.125Z,22.77
2022-12-16T19:21:51.907Z,24.85
2022-12-16T19:24:47.411Z,25.42
2022-12-16T19:27:32.944Z,27.38
2022-12-16T19:30:22.801Z,32.67
2022-12-16T19:33:08.969Z,36.25
2022-12-16T19:36:10.528Z,31.55
2022-12-16T19:38:59.980Z,32.30
2022-12-16T19:41:59.154Z,30.42
2022-12-16T19:44:57.969Z,37.55
2022-12-16T19:47:52.492Z,31.27
2022-12-16T19:50:38.551Z,35.70
2022-12-16T19:53:26.439Z,36.72
2022-12-16T19:56:17.271Z,29.23
2022-12-16T19:59:06.121Z,31.92
2022-12-16T20:14:44.527Z,30.40
2022-12-16T20:17:42.532Z,25.75
2022-12-16T20:20:54.852Z,22.33
2022-12-16T20:23:54.351Z,24.13
2022-12-16T20:55:40.214Z,20.38
